createdAt,value
2018-03-18T00:02:10.940Z,8.40
2018-03-18T00:04:38.530Z,9.03
2018-03-18T00:07:07.635Z,7.43
2018-03-18T00:09:36.042Z,8.77
2018-03-18T00:12:03.638Z,9.53
2018-03-18T00:14:31.272Z,9.67
2018-03-18T00:16:58.868Z,8.20
2018-03-18T00:19:26.465Z,6.53
2018-03-18T00:21:54.857Z,8.23
2018-03-18T00:24:22.560Z,12.40
2018-03-18T00:26:50.192Z,11.33
2018-03-18T00:29:17.802Z,11.30
2018-03-18T00:31:45.402Z,15.93
2018-03-18T00:34:13.862Z,8.17
2018-03-18T00:36:41.472Z,8.00
2018-03-18T00:39:09.137Z,8.03
2018-03-18T00:41:36.740Z,10.03
2018-03-18T00:44:05.843Z,8.60
2018-03-18T00:46:34.267Z,7.07
2018-03-18T00:49:01.864Z,10.17
2018-03-18T00:51:41.510Z,7.10
2018-03-18T00:54:09.165Z,14.93
2018-03-18T00:56:36.775Z,7.50
2018-03-18T00:59:04.466Z,13.30
2018-03-18T01:01:32.064Z,7.90
2018-03-18T01:03:59.691Z,6.00
2018-03-18T01:06:27.284Z,9.90
2018-03-18T01:08:54.925Z,9.17
2018-03-18T01:11:22.532Z,5.40
2018-03-18T01:13:50.892Z,5.53
2018-03-18T01:16:18.519Z,9.47
2018-03-18T01:18:46.175Z,9.83
2018-03-18T01:21:13.766Z,8.80
2018-03-18T01:23:42.902Z,11.40
2018-03-18T01:26:10.522Z,7.30
2018-03-18T01:28:38.125Z,10.93
2018-03-18T01:31:05.739Z,7.40
2018-03-18T01:33:33.370Z,13.10
2018-03-18T01:36:01.000Z,9.83
2018-03-18T01:38:28.612Z,8.70
2018-03-18T01:40:56.206Z,10.77
2018-03-18T01:43:24.628Z,10.37
2018-03-18T01:45:52.221Z,6.63
2018-03-18T01:48:19.844Z,8.00
2018-03-18T01:50:47.451Z,13.93
2018-03-18T01:53:22.971Z,8.23
2018-03-18T01:55:50.574Z,10.30
2018-03-18T01:58:18.972Z,11.07
2018-03-18T02:00:46.567Z,7.40
2018-03-18T02:03:14.185Z,11.63
2018-03-18T02:05:41.894Z,12.87
2018-03-18T02:08:09.516Z,8.90
2018-03-18T02:10:37.120Z,12.63
2018-03-18T02:13:04.759Z,15.57
2018-03-18T02:15:32.360Z,13.30
2018-03-18T02:17:59.986Z,11.13
2018-03-18T02:20:27.575Z,9.53
2018-03-18T02:22:55.222Z,10.53
2018-03-18T02:25:22.888Z,10.60
2018-03-18T02:27:50.549Z,12.53
2018-03-18T02:30:18.168Z,8.70
2018-03-18T02:32:45.788Z,10.60
2018-03-18T02:35:13.388Z,10.70
2018-03-18T02:37:41.022Z,8.93
2018-03-18T02:40:09.396Z,12.80
2018-03-18T02:42:37.028Z,10.43
2018-03-18T02:45:04.625Z,11.43
2018-03-18T02:47:32.988Z,12.90
2018-03-18T02:50:00.623Z,12.50
2018-03-18T02:52:28.220Z,16.43
2018-03-18T02:54:55.836Z,14.30
2018-03-18T02:57:23.463Z,11.60
2018-03-18T02:59:51.886Z,21.33
2018-03-18T03:02:19.489Z,11.83
2018-03-18T03:04:47.904Z,14.50
2018-03-18T03:07:15.853Z,13.10
2018-03-18T03:09:44.253Z,11.23
2018-03-18T03:12:11.869Z,9.50
2018-03-18T03:14:39.500Z,14.10
2018-03-18T03:17:07.102Z,10.20
2018-03-18T03:19:35.516Z,16.00
2018-03-18T03:22:03.116Z,13.67
2018-03-18T03:24:30.756Z,12.63
2018-03-18T03:26:58.348Z,13.93
2018-03-18T03:29:25.969Z,10.23
2018-03-18T03:31:53.570Z,14.20
2018-03-18T03:34:21.207Z,8.40
2018-03-18T03:36:48.811Z,10.03
2018-03-18T03:39:17.348Z,12.77
2018-03-18T03:41:45.036Z,12.30
2018-03-18T03:44:12.660Z,8.60
2018-03-18T03:46:40.252Z,11.00
2018-03-18T03:49:07.880Z,11.33
2018-03-18T03:51:35.476Z,10.53
2018-03-18T03:54:03.106Z,16.10
2018-03-18T03:56:30.696Z,8.80
2018-03-18T03:58:58.330Z,14.67
2018-03-18T04:01:25.931Z,13.67
2018-03-18T04:03:53.569Z,12.27
2018-03-18T04:06:21.200Z,9.90
2018-03-18T04:08:48.812Z,10.77
2018-03-18T04:11:17.197Z,9.60
2018-03-18T04:13:45.563Z,9.53
2018-03-18T04:16:13.184Z,9.60
2018-03-18T04:18:40.784Z,10.13
2018-03-18T04:21:08.416Z,13.03
2018-03-18T04:23:36.049Z,10.47
2018-03-18T04:26:03.648Z,9.07
2018-03-18T04:28:31.283Z,11.30
2018-03-18T04:30:59.063Z,10.03
2018-03-18T04:33:26.700Z,8.30
2018-03-18T04:35:54.292Z,10.00
2018-03-18T04:38:21.956Z,6.50
2018-03-18T04:40:49.559Z,6.37
2018-03-18T04:43:17.955Z,3.53
2018-03-18T04:45:45.553Z,7.07
2018-03-18T04:48:13.185Z,7.10
2018-03-18T04:50:40.855Z,10.63
2018-03-18T04:53:08.467Z,10.03
2018-03-18T04:55:36.078Z,9.83
2018-03-18T04:58:03.712Z,9.07
2018-03-18T05:00:32.080Z,10.37
2018-03-18T05:03:00.537Z,12.17
2018-03-18T05:05:28.160Z,12.93
2018-03-18T05:07:55.764Z,6.37
2018-03-18T05:10:23.393Z,9.77
2018-03-18T05:12:51.021Z,8.80
2018-03-18T05:15:19.444Z,8.37
2018-03-18T05:17:47.053Z,10.90
2018-03-18T05:20:14.757Z,13.10
2018-03-18T05:25:16.411Z,9.17
2018-03-18T05:27:44.004Z,12.63
2018-03-18T05:30:11.633Z,8.47
2018-03-18T05:32:39.279Z,7.87
2018-03-18T05:35:07.022Z,8.27
2018-03-18T05:37:35.400Z,9.40
2018-03-18T05:40:03.788Z,10.67
2018-03-18T05:42:32.147Z,8.93
2018-03-18T05:44:59.771Z,5.60
2018-03-18T05:47:27.364Z,9.67
2018-03-18T05:49:54.984Z,7.80
2018-03-18T05:52:22.582Z,10.80
2018-03-18T05:54:50.204Z,5.93
2018-03-18T05:57:18.584Z,9.20
2018-03-18T05:59:46.224Z,15.20
2018-03-18T06:02:13.816Z,6.07
2018-03-18T06:04:41.484Z,6.10
2018-03-18T06:07:09.111Z,9.40
2018-03-18T06:09:36.716Z,10.80
2018-03-18T06:12:04.344Z,7.53
2018-03-18T06:14:31.946Z,8.27
2018-03-18T06:17:00.345Z,15.67
2018-03-18T06:19:28.699Z,12.00
2018-03-18T06:21:56.316Z,4.80
2018-03-18T06:24:23.944Z,11.50
2018-03-18T06:26:52.343Z,6.67
2018-03-18T06:29:19.939Z,6.80
2018-03-18T06:31:47.561Z,8.23
2018-03-18T06:34:15.173Z,8.47
2018-03-18T06:36:42.799Z,9.70
2018-03-18T06:39:10.393Z,9.27
2018-03-18T06:41:38.020Z,10.93
2018-03-18T06:44:05.620Z,6.30
2018-03-18T06:46:33.240Z,9.00
2018-03-18T06:49:00.875Z,7.57
2018-03-18T06:51:29.272Z,14.47
2018-03-18T06:53:56.855Z,8.43
2018-03-18T06:56:24.489Z,8.27
2018-03-18T06:58:52.085Z,8.40
2018-03-18T07:01:19.725Z,4.57
2018-03-18T07:03:47.337Z,9.70
2018-03-18T07:06:14.937Z,6.20
2018-03-18T07:08:42.552Z,7.87
2018-03-18T07:11:10.153Z,7.37
2018-03-18T07:13:37.780Z,7.47
2018-03-18T07:16:06.137Z,6.77
2018-03-18T07:18:33.763Z,5.00
2018-03-18T07:21:01.368Z,8.07
2018-03-18T07:23:28.992Z,8.43
2018-03-18T07:25:56.591Z,5.97
2018-03-18T07:28:24.218Z,5.03
2018-03-18T07:30:51.808Z,8.73
2018-03-18T07:33:20.390Z,6.80
2018-03-18T07:35:48.262Z,7.70
2018-03-18T07:38:16.137Z,5.07
2018-03-18T07:40:43.947Z,5.90
2018-03-18T07:43:11.560Z,5.90
2018-03-18T07:45:40.850Z,8.10
2018-03-18T07:48:08.723Z,4.40
2018-03-18T07:50:37.078Z,5.03
2018-03-18T07:53:04.702Z,3.57
2018-03-18T07:55:32.301Z,10.33
2018-03-18T07:57:59.932Z,3.67
2018-03-18T08:00:27.522Z,10.80
2018-03-18T08:02:55.228Z,3.47
2018-03-18T08:05:23.787Z,7.63
2018-03-18T08:07:51.654Z,10.47
2018-03-18T08:10:19.273Z,6.10
2018-03-18T08:12:46.868Z,5.40
2018-03-18T08:15:14.479Z,6.27
2018-03-18T08:17:42.066Z,5.50
2018-03-18T08:20:09.724Z,5.70
2018-03-18T08:22:37.320Z,5.00
2018-03-18T08:25:04.919Z,8.00
2018-03-18T08:27:33.305Z,7.00
2018-03-18T08:30:01.039Z,4.83
2018-03-18T08:32:31.766Z,5.43
2018-03-18T08:35:00.292Z,4.50
2018-03-18T08:37:27.887Z,5.67
2018-03-18T08:39:55.550Z,6.20
2018-03-18T08:42:31.002Z,4.77
2018-03-18T08:44:58.610Z,5.67
2018-03-18T08:47:26.212Z,3.00
2018-03-18T08:49:53.835Z,7.63
2018-03-18T08:52:21.493Z,5.63
2018-03-18T08:54:49.092Z,4.37
2018-03-18T08:57:17.256Z,4.63
2018-03-18T08:59:44.873Z,4.60
2018-03-18T09:02:13.245Z,5.10
2018-03-18T09:04:41.004Z,4.30
2018-03-18T09:07:08.787Z,6.07
2018-03-18T09:09:37.137Z,5.20
2018-03-18T09:12:06.233Z,5.57
2018-03-18T09:14:33.853Z,6.10
2018-03-18T09:17:01.454Z,6.47
2018-03-18T09:19:29.064Z,12.73
2018-03-18T09:21:56.651Z,3.00
2018-03-18T09:24:24.262Z,4.30
2018-03-18T09:26:52.614Z,5.20
2018-03-18T09:29:20.233Z,3.43
2018-03-18T09:31:47.823Z,8.60
2018-03-18T09:34:15.428Z,6.10
2018-03-18T09:36:43.799Z,7.77
2018-03-18T09:39:12.449Z,4.30
2018-03-18T09:41:40.220Z,7.30
2018-03-18T09:44:07.833Z,7.07
2018-03-18T09:46:35.643Z,3.87
2018-03-18T09:49:03.446Z,5.07
2018-03-18T09:51:32.045Z,4.20
2018-03-18T09:54:00.679Z,6.33
2018-03-18T09:56:28.549Z,5.07
2018-03-18T09:58:57.231Z,9.23
2018-03-18T10:01:24.991Z,8.50
2018-03-18T10:03:52.862Z,3.47
2018-03-18T10:06:21.544Z,7.20
2018-03-18T10:08:49.407Z,3.90
2018-03-18T10:11:16.993Z,3.63
2018-03-18T10:13:44.616Z,3.47
2018-03-18T10:16:13.613Z,4.50
2018-03-18T10:18:41.219Z,5.57
2018-03-18T10:21:09.646Z,4.93
2018-03-18T10:23:37.271Z,5.20
2018-03-18T10:26:05.632Z,4.03
2018-03-18T10:28:34.024Z,3.53
2018-03-18T10:31:02.376Z,5.23
2018-03-18T10:33:29.990Z,5.50
2018-03-18T10:35:59.270Z,6.40
2018-03-18T10:38:27.004Z,4.57
2018-03-18T10:40:54.594Z,5.00
2018-03-18T10:43:22.224Z,4.20
2018-03-18T10:45:49.813Z,4.00
2018-03-18T10:48:17.433Z,2.93
2018-03-18T10:50:45.218Z,6.23
2018-03-18T10:53:13.000Z,6.33
2018-03-18T10:55:41.348Z,4.13
2018-03-18T10:58:09.823Z,2.23
2018-03-18T11:00:43.752Z,4.50
2018-03-18T11:03:12.206Z,4.80
2018-03-18T11:05:39.908Z,5.80
2018-03-18T11:08:08.431Z,4.83
2018-03-18T11:10:36.200Z,5.97
2018-03-18T11:13:03.785Z,3.83
2018-03-18T11:15:31.585Z,5.00
2018-03-18T11:17:59.402Z,4.10
2018-03-18T11:20:27.374Z,2.70
2018-03-18T11:22:54.997Z,2.90
2018-03-18T11:25:22.908Z,3.53
2018-03-18T11:27:50.533Z,2.37
2018-03-18T11:30:18.119Z,2.70
2018-03-18T11:32:45.875Z,4.97
2018-03-18T11:35:13.524Z,4.20
2018-03-18T11:37:41.226Z,5.20
2018-03-18T11:40:08.816Z,5.50
2018-03-18T11:42:37.256Z,3.67
2018-03-18T11:45:04.845Z,6.53
2018-03-18T11:47:33.204Z,4.33
2018-03-18T11:50:01.615Z,7.03
2018-03-18T11:52:29.999Z,4.23
2018-03-18T11:54:57.614Z,3.50
2018-03-18T11:57:25.229Z,4.40
2018-03-18T11:59:52.821Z,4.47
2018-03-18T12:02:20.432Z,4.93
2018-03-18T12:04:49.166Z,8.73
2018-03-18T12:07:17.350Z,5.27
2018-03-18T12:09:45.001Z,3.90
2018-03-18T12:12:12.764Z,3.10
2018-03-18T12:14:40.473Z,6.53
2018-03-18T12:17:08.831Z,6.57
2018-03-18T12:19:37.956Z,6.10
2018-03-18T12:22:06.308Z,3.77
2018-03-18T12:24:33.944Z,3.63
2018-03-18T12:27:01.535Z,3.37
2018-03-18T12:29:29.132Z,4.27
2018-03-18T12:31:56.766Z,3.60
2018-03-18T12:34:24.360Z,3.67
2018-03-18T12:36:52.047Z,4.13
2018-03-18T12:39:19.710Z,2.97
2018-03-18T12:41:47.336Z,10.00
2018-03-18T12:44:14.963Z,3.87
2018-03-18T12:46:42.700Z,2.80
2018-03-18T12:49:10.597Z,4.80
2018-03-18T12:51:38.483Z,4.00
2018-03-18T12:54:09.155Z,5.43
2018-03-18T12:56:37.675Z,5.10
2018-03-18T12:59:05.292Z,4.63
2018-03-18T13:01:32.880Z,4.03
2018-03-18T13:04:00.506Z,3.60
2018-03-18T13:06:28.096Z,3.00
2018-03-18T13:08:55.712Z,3.47
2018-03-18T13:11:23.316Z,3.27
2018-03-18T13:13:50.948Z,4.07
2018-03-18T13:16:18.552Z,2.70
2018-03-18T13:18:46.176Z,3.40
2018-03-18T13:21:13.760Z,3.47
2018-03-18T13:23:41.382Z,3.13
2018-03-18T13:26:08.985Z,5.07
2018-03-18T13:28:36.620Z,3.13
2018-03-18T13:31:04.211Z,3.40
2018-03-18T13:33:31.836Z,5.80
2018-03-18T13:35:59.434Z,4.87
2018-03-18T13:38:27.021Z,4.33
2018-03-18T13:40:55.412Z,5.17
2018-03-18T13:43:23.867Z,4.77
2018-03-18T13:45:51.464Z,6.03
2018-03-18T13:48:19.088Z,1.20
2018-03-18T13:50:46.684Z,4.07
2018-03-18T13:53:14.308Z,3.10
2018-03-18T13:55:41.891Z,3.40
2018-03-18T13:58:10.274Z,4.90
2018-03-18T14:00:38.630Z,4.03
2018-03-18T14:03:06.249Z,2.53
2018-03-18T14:05:33.860Z,4.10
2018-03-18T14:08:01.501Z,3.13
2018-03-18T14:10:29.116Z,5.37
2018-03-18T14:12:56.729Z,3.47
2018-03-18T14:15:24.345Z,4.00
2018-03-18T14:17:51.938Z,3.57
2018-03-18T14:20:19.583Z,7.70
2018-03-18T14:22:47.160Z,3.20
2018-03-18T14:25:14.774Z,5.23
2018-03-18T14:27:42.356Z,5.47
2018-03-18T14:30:09.986Z,3.47
2018-03-18T14:32:37.576Z,5.40
2018-03-18T14:35:05.189Z,4.47
2018-03-18T14:37:33.580Z,3.17
2018-03-18T14:40:01.949Z,3.10
2018-03-18T14:42:30.311Z,3.50
2018-03-18T14:44:59.462Z,4.43
2018-03-18T14:47:27.049Z,3.33
2018-03-18T14:49:54.655Z,3.87
2018-03-18T14:52:22.331Z,4.13
2018-03-18T14:54:49.945Z,4.30
2018-03-18T14:57:17.529Z,4.90
2018-03-18T14:59:45.924Z,3.30
2018-03-18T15:02:13.521Z,4.37
2018-03-18T15:04:41.145Z,4.70
2018-03-18T15:07:08.745Z,3.70
2018-03-18T15:09:36.363Z,6.50
2018-03-18T15:12:04.719Z,3.13
2018-03-18T15:14:32.331Z,3.00
2018-03-18T15:16:59.926Z,4.03
2018-03-18T15:19:27.613Z,4.47
2018-03-18T15:21:55.968Z,2.57
2018-03-18T15:24:23.576Z,4.43
2018-03-18T15:26:51.176Z,5.30
2018-03-18T15:29:18.823Z,3.53
2018-03-18T15:31:46.410Z,3.17
2018-03-18T15:34:14.798Z,3.93
2018-03-18T15:36:43.161Z,3.73
2018-03-18T15:39:10.809Z,3.47
2018-03-18T15:41:38.427Z,3.37
2018-03-18T15:44:06.804Z,9.87
2018-03-18T15:46:35.154Z,4.93
2018-03-18T15:49:04.285Z,4.30
2018-03-18T15:51:31.875Z,4.33
2018-03-18T15:53:59.485Z,5.17
2018-03-18T15:56:28.030Z,3.77
2018-03-18T15:58:55.621Z,5.57
2018-03-18T16:01:23.327Z,4.53
2018-03-18T16:03:50.945Z,4.43
2018-03-18T16:06:19.907Z,3.07
2018-03-18T16:08:47.641Z,2.77
2018-03-18T16:11:15.271Z,3.23
2018-03-18T16:13:43.648Z,4.83
2018-03-18T16:16:12.003Z,3.70
2018-03-18T16:18:39.665Z,3.40
2018-03-18T16:21:07.260Z,3.90
2018-03-18T16:23:35.636Z,3.10
2018-03-18T16:26:03.992Z,2.67
2018-03-18T16:28:33.130Z,5.00
2018-03-18T16:31:12.712Z,3.47
2018-03-18T16:33:40.328Z,4.50
2018-03-18T16:36:07.919Z,4.10
2018-03-18T16:38:35.510Z,3.13
2018-03-18T16:41:03.908Z,3.33
2018-03-18T16:43:32.264Z,3.87
2018-03-18T16:46:00.621Z,6.30
2018-03-18T16:48:28.245Z,4.87
2018-03-18T16:50:55.834Z,5.67
2018-03-18T16:53:23.452Z,7.20
2018-03-18T16:55:51.821Z,6.00
2018-03-18T16:58:19.472Z,8.20
2018-03-18T17:00:47.123Z,4.10
2018-03-18T17:03:14.760Z,4.73
2018-03-18T17:05:42.356Z,6.13
2018-03-18T17:08:09.968Z,4.60
2018-03-18T17:10:37.952Z,2.77
2018-03-18T17:13:05.589Z,7.73
2018-03-18T17:15:33.209Z,4.37
2018-03-18T17:18:00.813Z,5.37
2018-03-18T17:20:31.004Z,6.63
2018-03-18T17:22:59.549Z,3.40
2018-03-18T17:25:27.183Z,5.97
2018-03-18T17:27:54.803Z,10.20
2018-03-18T17:30:22.428Z,5.03
2018-03-18T17:32:50.038Z,5.20
2018-03-18T17:35:18.484Z,12.00
2018-03-18T17:37:46.380Z,5.60
2018-03-18T17:40:14.738Z,5.07
2018-03-18T17:42:43.861Z,5.50
2018-03-18T17:45:24.257Z,6.80
2018-03-18T17:48:03.921Z,8.97
2018-03-18T17:50:43.416Z,4.10
2018-03-18T17:53:22.885Z,5.37
2018-03-18T17:55:50.480Z,5.47
2018-03-18T17:58:18.327Z,3.53
2018-03-18T18:00:45.920Z,4.20
2018-03-18T18:03:14.311Z,3.57
2018-03-18T18:05:42.669Z,4.70
2018-03-18T18:08:11.789Z,9.70
2018-03-18T18:10:40.147Z,4.13
2018-03-18T18:13:08.524Z,3.73
2018-03-18T18:15:36.131Z,3.40
2018-03-18T18:18:03.746Z,4.50
2018-03-18T18:20:31.362Z,4.90
2018-03-18T18:22:58.953Z,7.37
2018-03-18T18:25:26.813Z,3.17
2018-03-18T18:27:55.428Z,3.33
2018-03-18T18:30:23.823Z,4.60
2018-03-18T18:32:51.418Z,4.13
2018-03-18T18:35:19.018Z,4.47
2018-03-18T18:37:47.425Z,2.83
2018-03-18T18:40:15.022Z,4.07
2018-03-18T18:42:42.652Z,5.27
2018-03-18T18:45:10.274Z,4.80
2018-03-18T18:47:39.422Z,4.30
2018-03-18T18:50:07.425Z,3.53
2018-03-18T18:52:35.071Z,4.00
2018-03-18T18:55:02.913Z,2.53
2018-03-18T18:57:30.510Z,5.20
2018-03-18T18:59:58.375Z,5.10
2018-03-18T19:02:26.140Z,5.03
2018-03-18T19:04:54.084Z,3.37
2018-03-18T19:07:21.682Z,3.37
2018-03-18T19:09:49.420Z,4.43
2018-03-18T19:12:17.013Z,6.13
2018-03-18T19:14:44.628Z,7.13
2018-03-18T19:17:12.217Z,7.23
2018-03-18T19:19:39.834Z,3.80
2018-03-18T19:22:07.626Z,6.73
2018-03-18T19:24:35.244Z,3.80
2018-03-18T19:27:03.631Z,5.27
2018-03-18T19:29:31.234Z,4.53
2018-03-18T19:31:58.865Z,6.90
2018-03-18T19:34:26.565Z,4.10
2018-03-18T19:36:54.933Z,7.50
2018-03-18T19:39:22.817Z,7.57
2018-03-18T19:41:50.426Z,4.43
2018-03-18T19:44:18.058Z,4.73
2018-03-18T19:46:46.610Z,4.50
2018-03-18T19:49:14.188Z,5.73
2018-03-18T19:51:41.935Z,9.97
2018-03-18T19:54:10.072Z,6.30
2018-03-18T19:56:38.308Z,5.63
2018-03-18T19:59:07.396Z,4.97
2018-03-18T20:01:36.667Z,4.60
2018-03-18T20:04:04.321Z,5.30
2018-03-18T20:06:31.905Z,3.67
2018-03-18T20:08:59.549Z,3.80
2018-03-18T20:11:27.138Z,3.50
2018-03-18T20:13:56.261Z,3.57
2018-03-18T20:16:24.616Z,5.33
2018-03-18T20:18:52.224Z,5.57
2018-03-18T20:21:19.812Z,4.20
2018-03-18T20:23:47.452Z,3.70
2018-03-18T20:26:15.032Z,3.90
2018-03-18T20:28:42.691Z,7.60
2018-03-18T20:31:10.277Z,5.70
2018-03-18T20:33:37.920Z,6.93
2018-03-18T20:36:05.517Z,5.53
2018-03-18T20:38:33.866Z,6.47
2018-03-18T20:41:01.480Z,4.00
2018-03-18T20:43:29.081Z,7.03
2018-03-18T20:45:56.719Z,4.43
2018-03-18T20:48:24.304Z,7.37
2018-03-18T20:50:51.937Z,4.03
2018-03-18T20:53:19.532Z,5.53
2018-03-18T20:55:47.284Z,7.10
2018-03-18T20:58:14.868Z,6.33
2018-03-18T21:00:42.486Z,5.13
2018-03-18T21:03:10.087Z,4.83
2018-03-18T21:05:37.836Z,7.47
2018-03-18T21:08:06.947Z,9.20
2018-03-18T21:10:36.085Z,4.97
2018-03-18T21:13:03.669Z,6.50
2018-03-18T21:15:31.280Z,3.00
2018-03-18T21:17:59.640Z,5.90
2018-03-18T21:20:27.267Z,3.40
2018-03-18T21:22:54.855Z,5.07
2018-03-18T21:25:22.460Z,7.07
2018-03-18T21:27:50.049Z,9.43
2018-03-18T21:30:17.668Z,5.83
2018-03-18T21:32:46.020Z,3.63
2018-03-18T21:35:14.405Z,3.63
2018-03-18T21:37:42.009Z,4.63
2018-03-18T21:40:09.601Z,5.97
2018-03-18T21:42:37.258Z,3.63
2018-03-18T21:45:04.846Z,6.60
2018-03-18T21:47:32.432Z,9.20
2018-03-18T21:50:00.813Z,9.13
2018-03-18T21:52:29.160Z,3.47
2018-03-18T21:54:56.780Z,8.20
2018-03-18T21:57:24.356Z,6.80
2018-03-18T21:59:52.120Z,6.73
2018-03-18T22:02:19.927Z,4.97
2018-03-18T22:04:48.585Z,6.27
2018-03-18T22:07:16.245Z,5.90
2018-03-18T22:09:43.833Z,6.63
2018-03-18T22:12:12.230Z,7.90
2018-03-18T22:14:40.576Z,8.43
2018-03-18T22:17:08.187Z,4.67
2018-03-18T22:19:35.792Z,8.77
2018-03-18T22:22:03.413Z,7.97
2018-03-18T22:24:30.996Z,5.40
2018-03-18T22:26:58.610Z,4.63
2018-03-18T22:29:26.956Z,7.03
2018-03-18T22:31:54.548Z,6.57
2018-03-18T22:34:22.936Z,7.30
2018-03-18T22:36:50.552Z,4.20
2018-03-18T22:39:18.148Z,6.10
2018-03-18T22:41:46.554Z,6.63
2018-03-18T22:44:14.163Z,3.77
2018-03-18T22:46:41.759Z,6.13
2018-03-18T22:49:09.384Z,9.00
2018-03-18T22:51:36.968Z,4.13
2018-03-18T22:54:05.394Z,5.03
2018-03-18T22:56:33.004Z,12.50
2018-03-18T22:59:01.639Z,6.93
2018-03-18T23:01:29.272Z,10.53
2018-03-18T23:03:56.856Z,8.27
2018-03-18T23:06:24.452Z,5.43
2018-03-18T23:08:52.072Z,5.50
2018-03-18T23:11:19.662Z,4.80
2018-03-18T23:13:47.284Z,4.90
2018-03-18T23:16:14.881Z,5.43
2018-03-18T23:18:42.529Z,7.30
2018-03-18T23:21:10.116Z,4.83
2018-03-18T23:23:39.237Z,5.23
2018-03-18T23:26:07.887Z,5.00
2018-03-18T23:28:35.480Z,6.33
2018-03-18T23:31:03.880Z,5.30
2018-03-18T23:33:31.481Z,6.20
2018-03-18T23:35:59.064Z,7.80
2018-03-18T23:38:27.521Z,6.03
2018-03-18T23:40:55.112Z,5.53
2018-03-18T23:43:23.469Z,5.87
2018-03-18T23:45:51.101Z,7.03
2018-03-18T23:48:18.684Z,6.70
2018-03-18T23:50:48.088Z,8.20
2018-03-18T23:53:15.712Z,7.73
2018-03-18T23:55:43.307Z,8.27
2018-03-18T23:58:10.906Z,4.07
